sensor_id;sensor_type;location;lat;lon;timestamp;temperature;humidity
51029;DHT22;37054;52.054;8.600;2022-09-09T00:00:18;20.70;57.10
51029;DHT22;37054;52.054;8.600;2022-09-09T00:02:45;20.70;57.10
51029;DHT22;37054;52.054;8.600;2022-09-09T00:07:47;20.80;56.90
51029;DHT22;37054;52.054;8.600;2022-09-09T00:12:41;20.80;56.80
51029;DHT22;37054;52.054;8.600;2022-09-09T00:15:14;20.80;56.80
51029;DHT22;37054;52.054;8.600;2022-09-09T00:20:19;20.70;56.80
51029;DHT22;37054;52.054;8.600;2022-09-09T00:22:57;20.70;56.80
51029;DHT22;37054;52.054;8.600;2022-09-09T00:25:45;20.70;56.80
51029;DHT22;37054;52.054;8.600;2022-09-09T00:28:13;20.70;56.80
51029;DHT22;37054;52.054;8.600;2022-09-09T00:30:43;20.70;56.90
51029;DHT22;37054;52.054;8.600;2022-09-09T00:33:12;20.70;56.90
51029;DHT22;37054;52.054;8.600;2022-09-09T00:36:01;20.70;57.10
51029;DHT22;37054;52.054;8.600;2022-09-09T00:38:36;20.80;57.10
51029;DHT22;37054;52.054;8.600;2022-09-09T00:41:05;20.90;57.20
51029;DHT22;37054;52.054;8.600;2022-09-09T00:43:36;21.10;57.10
51029;DHT22;37054;52.054;8.600;2022-09-09T00:48:31;21.20;56.70
51029;DHT22;37054;52.054;8.600;2022-09-09T00:51:05;21.20;56.50
51029;DHT22;37054;52.054;8.600;2022-09-09T00:53:36;21.10;56.40
51029;DHT22;37054;52.054;8.600;2022-09-09T00:56:14;21.00;56.60
51029;DHT22;37054;52.054;8.600;2022-09-09T00:58:43;21.00;56.60
51029;DHT22;37054;52.054;8.600;2022-09-09T01:01:12;21.00;56.70
51029;DHT22;37054;52.054;8.600;2022-09-09T01:03:53;20.90;56.80
51029;DHT22;37054;52.054;8.600;2022-09-09T01:06:36;20.90;57.00
51029;DHT22;37054;52.054;8.600;2022-09-09T01:14:27;20.90;57.10
51029;DHT22;37054;52.054;8.600;2022-09-09T01:16:56;20.90;57.00
51029;DHT22;37054;52.054;8.600;2022-09-09T01:19:57;20.90;57.10
51029;DHT22;37054;52.054;8.600;2022-09-09T01:27:40;21.00;57.00
51029;DHT22;37054;52.054;8.600;2022-09-09T01:30:11;20.90;56.90
51029;DHT22;37054;52.054;8.600;2022-09-09T01:35:11;20.90;56.90
51029;DHT22;37054;52.054;8.600;2022-09-09T01:37:38;20.90;56.90
51029;DHT22;37054;52.054;8.600;2022-09-09T01:40:03;21.00;56.80
51029;DHT22;37054;52.054;8.600;2022-09-09T01:42:29;21.00;56.70
51029;DHT22;37054;52.054;8.600;2022-09-09T01:44:55;21.10;56.70
51029;DHT22;37054;52.054;8.600;2022-09-09T01:47:20;21.20;56.70
51029;DHT22;37054;52.054;8.600;2022-09-09T01:49:46;21.20;56.60
51029;DHT22;37054;52.054;8.600;2022-09-09T01:52:11;21.30;56.50
51029;DHT22;37054;52.054;8.600;2022-09-09T01:54:37;21.30;56.30
51029;DHT22;37054;52.054;8.600;2022-09-09T02:00:02;21.40;56.00
51029;DHT22;37054;52.054;8.600;2022-09-09T02:02:35;21.50;56.00
51029;DHT22;37054;52.054;8.600;2022-09-09T02:07:50;21.60;55.80
51029;DHT22;37054;52.054;8.600;2022-09-09T02:10:30;21.60;55.70
51029;DHT22;37054;52.054;8.600;2022-09-09T02:16:01;21.50;55.50
51029;DHT22;37054;52.054;8.600;2022-09-09T02:21:03;21.40;55.50
51029;DHT22;37054;52.054;8.600;2022-09-09T02:23:30;21.30;55.50
51029;DHT22;37054;52.054;8.600;2022-09-09T02:25:57;21.30;55.50
51029;DHT22;37054;52.054;8.600;2022-09-09T02:28:23;21.30;55.50
51029;DHT22;37054;52.054;8.600;2022-09-09T02:30:50;21.20;55.60
51029;DHT22;37054;52.054;8.600;2022-09-09T02:33:24;21.10;55.50
51029;DHT22;37054;52.054;8.600;2022-09-09T02:35:52;21.10;55.60
51029;DHT22;37054;52.054;8.600;2022-09-09T02:38:18;21.00;55.70
51029;DHT22;37054;52.054;8.600;2022-09-09T02:40:45;20.90;55.80
51029;DHT22;37054;52.054;8.600;2022-09-09T02:43:10;21.00;55.80
51029;DHT22;37054;52.054;8.600;2022-09-09T02:45:38;21.00;55.90
51029;DHT22;37054;52.054;8.600;2022-09-09T02:48:30;21.00;56.00
51029;DHT22;37054;52.054;8.600;2022-09-09T02:56:08;21.20;55.80
51029;DHT22;37054;52.054;8.600;2022-09-09T02:58:34;21.30;55.80
51029;DHT22;37054;52.054;8.600;2022-09-09T03:01:00;21.30;55.70
51029;DHT22;37054;52.054;8.600;2022-09-09T03:03:28;21.30;55.70
51029;DHT22;37054;52.054;8.600;2022-09-09T03:05:54;21.40;55.50
51029;DHT22;37054;52.054;8.600;2022-09-09T03:08:19;21.40;55.50
51029;DHT22;37054;52.054;8.600;2022-09-09T03:10:45;21.50;55.40
51029;DHT22;37054;52.054;8.600;2022-09-09T03:13:11;21.50;55.40
51029;DHT22;37054;52.054;8.600;2022-09-09T03:15:38;21.50;55.30
51029;DHT22;37054;52.054;8.600;2022-09-09T03:18:03;21.50;55.20
51029;DHT22;37054;52.054;8.600;2022-09-09T03:20:29;21.50;55.30
51029;DHT22;37054;52.054;8.600;2022-09-09T03:22:55;21.50;55.30
51029;DHT22;37054;52.054;8.600;2022-09-09T03:25:21;21.50;55.30
51029;DHT22;37054;52.054;8.600;2022-09-09T03:27:51;21.50;55.30
51029;DHT22;37054;52.054;8.600;2022-09-09T03:30:20;21.50;55.30
51029;DHT22;37054;52.054;8.600;2022-09-09T03:32:45;21.60;55.30
51029;DHT22;37054;52.054;8.600;2022-09-09T03:35:11;21.50;55.30
51029;DHT22;37054;52.054;8.600;2022-09-09T03:37:37;21.50;55.30
51029;DHT22;37054;52.054;8.600;2022-09-09T03:40:04;21.50;55.30
51029;DHT22;37054;52.054;8.600;2022-09-09T03:42:29;21.60;55.30
51029;DHT22;37054;52.054;8.600;2022-09-09T03:44:57;21.60;55.30
51029;DHT22;37054;52.054;8.600;2022-09-09T03:47:23;21.50;55.30
51029;DHT22;37054;52.054;8.600;2022-09-09T03:49:48;21.50;55.40
51029;DHT22;37054;52.054;8.600;2022-09-09T03:52:14;21.50;55.50
51029;DHT22;37054;52.054;8.600;2022-09-09T03:54:40;21.50;55.60
51029;DHT22;37054;52.054;8.600;2022-09-09T03:57:06;21.50;55.70
51029;DHT22;37054;52.054;8.600;2022-09-09T03:59:32;21.50;55.80
51029;DHT22;37054;52.054;8.600;2022-09-09T04:01:57;21.60;55.80
51029;DHT22;37054;52.054;8.600;2022-09-09T04:04:24;21.60;55.80
51029;DHT22;37054;52.054;8.600;2022-09-09T04:06:51;21.60;55.80
51029;DHT22;37054;52.054;8.600;2022-09-09T04:09:16;21.60;55.90
51029;DHT22;37054;52.054;8.600;2022-09-09T04:11:42;21.60;55.90
51029;DHT22;37054;52.054;8.600;2022-09-09T04:14:07;21.60;55.80
51029;DHT22;37054;52.054;8.600;2022-09-09T04:16:34;21.70;55.80
51029;DHT22;37054;52.054;8.600;2022-09-09T04:19:00;21.70;55.90
51029;DHT22;37054;52.054;8.600;2022-09-09T04:21:26;21.60;56.00
51029;DHT22;37054;52.054;8.600;2022-09-09T04:23:52;21.60;56.20
51029;DHT22;37054;52.054;8.600;2022-09-09T04:26:17;21.50;56.20
51029;DHT22;37054;52.054;8.600;2022-09-09T04:28:43;21.60;56.30
51029;DHT22;37054;52.054;8.600;2022-09-09T04:31:10;21.50;56.30
51029;DHT22;37054;52.054;8.600;2022-09-09T04:33:36;21.60;56.40
51029;DHT22;37054;52.054;8.600;2022-09-09T04:36:03;21.70;56.40
51029;DHT22;37054;52.054;8.600;2022-09-09T04:38:29;21.70;56.40
51029;DHT22;37054;52.054;8.600;2022-09-09T04:40:54;21.70;56.50
51029;DHT22;37054;52.054;8.600;2022-09-09T04:43:20;21.60;57.10
51029;DHT22;37054;52.054;8.600;2022-09-09T04:45:47;21.50;58.70
51029;DHT22;37054;52.054;8.600;2022-09-09T04:48:12;21.30;60.00
51029;DHT22;37054;52.054;8.600;2022-09-09T04:50:38;21.10;61.10
51029;DHT22;37054;52.054;8.600;2022-09-09T04:53:04;21.00;61.70
51029;DHT22;37054;52.054;8.600;2022-09-09T04:55:30;20.90;62.20
51029;DHT22;37054;52.054;8.600;2022-09-09T04:57:56;20.80;62.60
51029;DHT22;37054;52.054;8.600;2022-09-09T05:00:23;20.80;63.00
51029;DHT22;37054;52.054;8.600;2022-09-09T05:02:48;20.80;63.20
51029;DHT22;37054;52.054;8.600;2022-09-09T05:05:14;20.80;63.40
51029;DHT22;37054;52.054;8.600;2022-09-09T05:07:39;20.70;63.50
51029;DHT22;37054;52.054;8.600;2022-09-09T05:10:05;20.80;63.70
51029;DHT22;37054;52.054;8.600;2022-09-09T05:12:31;20.80;63.80
51029;DHT22;37054;52.054;8.600;2022-09-09T05:14:57;20.80;63.80
51029;DHT22;37054;52.054;8.600;2022-09-09T05:17:23;20.80;63.90
51029;DHT22;37054;52.054;8.600;2022-09-09T05:19:48;20.90;64.00
51029;DHT22;37054;52.054;8.600;2022-09-09T05:22:18;20.90;64.00
51029;DHT22;37054;52.054;8.600;2022-09-09T05:24:43;20.90;64.10
51029;DHT22;37054;52.054;8.600;2022-09-09T05:27:09;21.00;64.20
51029;DHT22;37054;52.054;8.600;2022-09-09T05:29:37;21.00;64.20
51029;DHT22;37054;52.054;8.600;2022-09-09T05:32:03;21.10;64.20
51029;DHT22;37054;52.054;8.600;2022-09-09T05:34:28;21.10;64.20
51029;DHT22;37054;52.054;8.600;2022-09-09T05:36:54;21.00;64.40
51029;DHT22;37054;52.054;8.600;2022-09-09T05:39:19;21.00;64.50
51029;DHT22;37054;52.054;8.600;2022-09-09T05:41:45;21.00;64.70
51029;DHT22;37054;52.054;8.600;2022-09-09T05:44:10;21.00;64.90
51029;DHT22;37054;52.054;8.600;2022-09-09T05:46:36;21.00;65.10
51029;DHT22;37054;52.054;8.600;2022-09-09T05:49:01;21.00;65.30
51029;DHT22;37054;52.054;8.600;2022-09-09T05:51:27;21.00;65.60
51029;DHT22;37054;52.054;8.600;2022-09-09T05:53:55;21.10;65.80
51029;DHT22;37054;52.054;8.600;2022-09-09T05:56:24;21.10;66.00
51029;DHT22;37054;52.054;8.600;2022-09-09T05:58:53;21.30;66.20
51029;DHT22;37054;52.054;8.600;2022-09-09T06:01:20;21.40;66.40
51029;DHT22;37054;52.054;8.600;2022-09-09T06:03:46;21.60;66.60
51029;DHT22;37054;52.054;8.600;2022-09-09T06:06:14;21.80;67.00
51029;DHT22;37054;52.054;8.600;2022-09-09T06:08:41;22.00;66.90
51029;DHT22;37054;52.054;8.600;2022-09-09T06:11:08;22.30;67.00
51029;DHT22;37054;52.054;8.600;2022-09-09T06:13:34;22.40;67.00
51029;DHT22;37054;52.054;8.600;2022-09-09T06:16:02;22.70;67.30
51029;DHT22;37054;52.054;8.600;2022-09-09T06:18:27;23.10;68.20
51029;DHT22;37054;52.054;8.600;2022-09-09T06:20:56;23.60;68.90
51029;DHT22;37054;52.054;8.600;2022-09-09T06:23:22;24.10;68.50
51029;DHT22;37054;52.054;8.600;2022-09-09T06:25:48;24.50;67.60
51029;DHT22;37054;52.054;8.600;2022-09-09T06:28:14;25.00;67.70
51029;DHT22;37054;52.054;8.600;2022-09-09T06:30:40;25.40;67.40
51029;DHT22;37054;52.054;8.600;2022-09-09T06:33:08;25.80;66.70
51029;DHT22;37054;52.054;8.600;2022-09-09T06:35:34;26.20;66.00
51029;DHT22;37054;52.054;8.600;2022-09-09T06:38:00;26.40;65.10
51029;DHT22;37054;52.054;8.600;2022-09-09T06:40:25;26.60;65.20
51029;DHT22;37054;52.054;8.600;2022-09-09T06:42:51;26.90;65.40
51029;DHT22;37054;52.054;8.600;2022-09-09T06:45:16;27.40;66.70
51029;DHT22;37054;52.054;8.600;2022-09-09T06:47:43;27.90;65.40
51029;DHT22;37054;52.054;8.600;2022-09-09T06:50:08;28.30;64.50
51029;DHT22;37054;52.054;8.600;2022-09-09T06:52:35;28.80;64.00
51029;DHT22;37054;52.054;8.600;2022-09-09T06:55:01;29.10;63.50
51029;DHT22;37054;52.054;8.600;2022-09-09T06:57:27;29.40;62.10
51029;DHT22;37054;52.054;8.600;2022-09-09T06:59:53;29.70;62.30
51029;DHT22;37054;52.054;8.600;2022-09-09T07:02:19;29.80;60.60
51029;DHT22;37054;52.054;8.600;2022-09-09T07:04:45;29.70;59.10
51029;DHT22;37054;52.054;8.600;2022-09-09T07:07:10;29.60;56.40
51029;DHT22;37054;52.054;8.600;2022-09-09T07:09:38;29.30;58.00
51029;DHT22;37054;52.054;8.600;2022-09-09T07:12:05;29.00;57.00
51029;DHT22;37054;52.054;8.600;2022-09-09T07:14:31;28.70;56.50
51029;DHT22;37054;52.054;8.600;2022-09-09T07:16:57;28.30;55.30
51029;DHT22;37054;52.054;8.600;2022-09-09T07:19:23;27.90;55.30
51029;DHT22;37054;52.054;8.600;2022-09-09T07:21:48;27.60;55.80
51029;DHT22;37054;52.054;8.600;2022-09-09T07:24:14;27.30;56.90
51029;DHT22;37054;52.054;8.600;2022-09-09T07:26:40;27.20;55.40
51029;DHT22;37054;52.054;8.600;2022-09-09T07:29:06;27.00;55.80
51029;DHT22;37054;52.054;8.600;2022-09-09T07:31:33;26.80;55.70
51029;DHT22;37054;52.054;8.600;2022-09-09T07:33:59;26.70;55.30
51029;DHT22;37054;52.054;8.600;2022-09-09T07:36:31;26.60;56.60
51029;DHT22;37054;52.054;8.600;2022-09-09T07:38:58;26.60;56.40
51029;DHT22;37054;52.054;8.600;2022-09-09T07:41:35;26.60;57.20
51029;DHT22;37054;52.054;8.600;2022-09-09T07:44:08;26.60;57.80
51029;DHT22;37054;52.054;8.600;2022-09-09T07:46:34;26.60;56.10
51029;DHT22;37054;52.054;8.600;2022-09-09T07:49:00;26.50;56.10
51029;DHT22;37054;52.054;8.600;2022-09-09T07:51:30;26.50;55.70
51029;DHT22;37054;52.054;8.600;2022-09-09T07:53:57;26.50;55.10
51029;DHT22;37054;52.054;8.600;2022-09-09T07:56:25;26.30;54.90
51029;DHT22;37054;52.054;8.600;2022-09-09T07:58:52;26.40;55.30
51029;DHT22;37054;52.054;8.600;2022-09-09T08:01:19;26.40;55.10
51029;DHT22;37054;52.054;8.600;2022-09-09T08:03:46;26.40;54.90
51029;DHT22;37054;52.054;8.600;2022-09-09T08:06:12;26.40;54.40
51029;DHT22;37054;52.054;8.600;2022-09-09T08:08:39;26.50;52.70
51029;DHT22;37054;52.054;8.600;2022-09-09T08:11:08;26.50;52.80
51029;DHT22;37054;52.054;8.600;2022-09-09T08:13:35;26.60;53.50
51029;DHT22;37054;52.054;8.600;2022-09-09T08:16:04;26.60;51.50
51029;DHT22;37054;52.054;8.600;2022-09-09T08:18:31;26.70;51.20
51029;DHT22;37054;52.054;8.600;2022-09-09T08:20:56;26.90;53.00
51029;DHT22;37054;52.054;8.600;2022-09-09T08:23:22;27.20;54.20
51029;DHT22;37054;52.054;8.600;2022-09-09T08:25:47;27.50;52.50
51029;DHT22;37054;52.054;8.600;2022-09-09T08:28:14;27.80;52.70
51029;DHT22;37054;52.054;8.600;2022-09-09T08:30:39;28.20;53.20
51029;DHT22;37054;52.054;8.600;2022-09-09T08:33:05;28.50;51.80
51029;DHT22;37054;52.054;8.600;2022-09-09T08:35:30;28.80;51.70
51029;DHT22;37054;52.054;8.600;2022-09-09T08:37:57;29.10;51.80
51029;DHT22;37054;52.054;8.600;2022-09-09T08:40:29;29.60;51.80
51029;DHT22;37054;52.054;8.600;2022-09-09T08:42:57;30.10;47.60
51029;DHT22;37054;52.054;8.600;2022-09-09T08:50:51;31.90;46.00
51029;DHT22;37054;52.054;8.600;2022-09-09T08:53:18;32.60;43.80
51029;DHT22;37054;52.054;8.600;2022-09-09T08:55:48;33.10;40.60
51029;DHT22;37054;52.054;8.600;2022-09-09T08:58:16;33.20;38.30
51029;DHT22;37054;52.054;8.600;2022-09-09T09:03:32;33.00;38.50
51029;DHT22;37054;52.054;8.600;2022-09-09T09:06:21;32.90;36.80
51029;DHT22;37054;52.054;8.600;2022-09-09T09:09:06;32.70;36.80
51029;DHT22;37054;52.054;8.600;2022-09-09T09:11:37;32.40;36.50
51029;DHT22;37054;52.054;8.600;2022-09-09T09:14:03;32.30;37.50
51029;DHT22;37054;52.054;8.600;2022-09-09T09:16:39;32.40;37.40
51029;DHT22;37054;52.054;8.600;2022-09-09T09:19:11;32.40;36.00
51029;DHT22;37054;52.054;8.600;2022-09-09T09:21:41;32.50;36.20
51029;DHT22;37054;52.054;8.600;2022-09-09T09:24:19;32.70;37.00
51029;DHT22;37054;52.054;8.600;2022-09-09T09:26:45;32.70;35.20
51029;DHT22;37054;52.054;8.600;2022-09-09T09:29:13;32.80;35.60
51029;DHT22;37054;52.054;8.600;2022-09-09T09:31:47;32.70;34.60
51029;DHT22;37054;52.054;8.600;2022-09-09T09:34:14;32.50;34.50
51029;DHT22;37054;52.054;8.600;2022-09-09T09:36:43;32.40;34.70
51029;DHT22;37054;52.054;8.600;2022-09-09T09:39:21;32.40;35.40
51029;DHT22;37054;52.054;8.600;2022-09-09T09:41:47;32.50;35.30
51029;DHT22;37054;52.054;8.600;2022-09-09T09:44:23;32.50;35.20
51029;DHT22;37054;52.054;8.600;2022-09-09T09:46:49;32.60;34.20
51029;DHT22;37054;52.054;8.600;2022-09-09T09:49:15;32.80;35.00
51029;DHT22;37054;52.054;8.600;2022-09-09T09:51:41;33.00;34.90
51029;DHT22;37054;52.054;8.600;2022-09-09T09:56:32;33.10;34.00
51029;DHT22;37054;52.054;8.600;2022-09-09T09:58:57;32.80;33.20
51029;DHT22;37054;52.054;8.600;2022-09-09T10:01:25;32.30;33.40
51029;DHT22;37054;52.054;8.600;2022-09-09T10:03:52;31.90;33.90
51029;DHT22;37054;52.054;8.600;2022-09-09T10:06:29;31.40;34.20
51029;DHT22;37054;52.054;8.600;2022-09-09T10:08:54;31.10;35.20
51029;DHT22;37054;52.054;8.600;2022-09-09T10:11:28;30.80;35.80
51029;DHT22;37054;52.054;8.600;2022-09-09T10:16:31;30.30;36.10
51029;DHT22;37054;52.054;8.600;2022-09-09T10:18:59;30.40;35.80
51029;DHT22;37054;52.054;8.600;2022-09-09T10:21:39;31.00;35.70
51029;DHT22;37054;52.054;8.600;2022-09-09T10:27:36;32.20;33.50
51029;DHT22;37054;52.054;8.600;2022-09-09T10:35:03;33.80;31.40
51029;DHT22;37054;52.054;8.600;2022-09-09T10:40:12;34.70;29.20
51029;DHT22;37054;52.054;8.600;2022-09-09T10:42:39;34.80;30.00
51029;DHT22;37054;52.054;8.600;2022-09-09T10:45:29;35.10;30.10
51029;DHT22;37054;52.054;8.600;2022-09-09T10:55:42;36.20;26.90
51029;DHT22;37054;52.054;8.600;2022-09-09T10:58:13;36.30;26.80
51029;DHT22;37054;52.054;8.600;2022-09-09T11:00:44;36.60;26.70
51029;DHT22;37054;52.054;8.600;2022-09-09T11:03:17;36.60;25.50
51029;DHT22;37054;52.054;8.600;2022-09-09T11:05:45;36.70;25.70
51029;DHT22;37054;52.054;8.600;2022-09-09T11:08:14;36.90;25.60
51029;DHT22;37054;52.054;8.600;2022-09-09T11:10:46;37.00;25.30
51029;DHT22;37054;52.054;8.600;2022-09-09T11:13:19;37.30;24.90
51029;DHT22;37054;52.054;8.600;2022-09-09T11:15:51;37.50;25.20
51029;DHT22;37054;52.054;8.600;2022-09-09T11:18:19;37.80;24.80
51029;DHT22;37054;52.054;8.600;2022-09-09T11:20:44;37.60;24.40
51029;DHT22;37054;52.054;8.600;2022-09-09T11:23:17;37.30;24.70
51029;DHT22;37054;52.054;8.600;2022-09-09T11:25:48;37.30;25.10
51029;DHT22;37054;52.054;8.600;2022-09-09T11:28:35;37.50;24.50
51029;DHT22;37054;52.054;8.600;2022-09-09T11:36:34;37.30;25.20
51029;DHT22;37054;52.054;8.600;2022-09-09T11:39:26;37.40;25.20
51029;DHT22;37054;52.054;8.600;2022-09-09T11:44:33;36.80;24.30
51029;DHT22;37054;52.054;8.600;2022-09-09T11:46:58;36.20;25.20
51029;DHT22;37054;52.054;8.600;2022-09-09T11:49:29;36.20;25.20
51029;DHT22;37054;52.054;8.600;2022-09-09T11:51:56;36.40;25.00
51029;DHT22;37054;52.054;8.600;2022-09-09T11:54:32;36.70;24.70
51029;DHT22;37054;52.054;8.600;2022-09-09T11:56:58;36.30;24.60
51029;DHT22;37054;52.054;8.600;2022-09-09T11:59:27;35.50;24.80
51029;DHT22;37054;52.054;8.600;2022-09-09T12:04:27;34.00;26.10
51029;DHT22;37054;52.054;8.600;2022-09-09T12:06:58;33.30;26.80
51029;DHT22;37054;52.054;8.600;2022-09-09T12:09:26;32.80;27.80
51029;DHT22;37054;52.054;8.600;2022-09-09T12:11:52;32.40;28.50
51029;DHT22;37054;52.054;8.600;2022-09-09T12:14:22;32.20;28.90
51029;DHT22;37054;52.054;8.600;2022-09-09T12:16:48;32.00;29.30
51029;DHT22;37054;52.054;8.600;2022-09-09T12:19:16;32.20;28.60
51029;DHT22;37054;52.054;8.600;2022-09-09T12:22:01;32.40;28.30
51029;DHT22;37054;52.054;8.600;2022-09-09T12:24:34;33.00;28.10
51029;DHT22;37054;52.054;8.600;2022-09-09T12:27:05;33.90;27.20
51029;DHT22;37054;52.054;8.600;2022-09-09T12:29:37;34.50;26.70
51029;DHT22;37054;52.054;8.600;2022-09-09T12:32:07;35.20;26.10
51029;DHT22;37054;52.054;8.600;2022-09-09T12:37:14;35.60;23.90
51029;DHT22;37054;52.054;8.600;2022-09-09T12:39:42;35.30;24.20
51029;DHT22;37054;52.054;8.600;2022-09-09T12:42:18;35.40;24.00
51029;DHT22;37054;52.054;8.600;2022-09-09T12:44:59;35.40;23.60
51029;DHT22;37054;52.054;8.600;2022-09-09T12:47:42;35.60;23.80
51029;DHT22;37054;52.054;8.600;2022-09-09T12:53:08;35.90;23.90
51029;DHT22;37054;52.054;8.600;2022-09-09T12:55:36;35.90;23.70
51029;DHT22;37054;52.054;8.600;2022-09-09T12:58:03;35.60;24.10
51029;DHT22;37054;52.054;8.600;2022-09-09T13:00:30;35.30;24.50
51029;DHT22;37054;52.054;8.600;2022-09-09T13:02:57;35.20;24.80
51029;DHT22;37054;52.054;8.600;2022-09-09T13:05:25;34.90;24.90
51029;DHT22;37054;52.054;8.600;2022-09-09T13:07:51;35.00;25.30
51029;DHT22;37054;52.054;8.600;2022-09-09T13:10:21;34.60;25.40
51029;DHT22;37054;52.054;8.600;2022-09-09T13:12:49;34.30;25.90
51029;DHT22;37054;52.054;8.600;2022-09-09T13:15:18;33.70;26.20
51029;DHT22;37054;52.054;8.600;2022-09-09T13:17:48;33.50;26.80
51029;DHT22;37054;52.054;8.600;2022-09-09T13:20:16;33.30;26.90
51029;DHT22;37054;52.054;8.600;2022-09-09T13:22:42;33.20;27.00
51029;DHT22;37054;52.054;8.600;2022-09-09T13:27:38;33.10;27.10
51029;DHT22;37054;52.054;8.600;2022-09-09T13:30:24;32.60;27.30
51029;DHT22;37054;52.054;8.600;2022-09-09T13:33:03;32.30;27.70
51029;DHT22;37054;52.054;8.600;2022-09-09T13:35:29;31.80;28.10
51029;DHT22;37054;52.054;8.600;2022-09-09T13:37:54;31.70;28.50
51029;DHT22;37054;52.054;8.600;2022-09-09T13:40:22;31.60;28.60
51029;DHT22;37054;52.054;8.600;2022-09-09T13:42:51;31.40;28.70
51029;DHT22;37054;52.054;8.600;2022-09-09T13:45:18;31.30;29.10
51029;DHT22;37054;52.054;8.600;2022-09-09T13:47:45;31.20;29.20
51029;DHT22;37054;52.054;8.600;2022-09-09T13:50:52;31.10;29.20
51029;DHT22;37054;52.054;8.600;2022-09-09T13:53:07;31.10;29.50
51029;DHT22;37054;52.054;8.600;2022-09-09T13:55:32;31.20;29.50
51029;DHT22;37054;52.054;8.600;2022-09-09T13:57:58;31.30;29.30
51029;DHT22;37054;52.054;8.600;2022-09-09T14:00:25;31.30;29.20
51029;DHT22;37054;52.054;8.600;2022-09-09T14:02:51;31.30;28.80
51029;DHT22;37054;52.054;8.600;2022-09-09T14:05:17;31.10;28.40
51029;DHT22;37054;52.054;8.600;2022-09-09T14:07:43;30.90;28.70
51029;DHT22;37054;52.054;8.600;2022-09-09T14:10:09;30.80;28.90
51029;DHT22;37054;52.054;8.600;2022-09-09T14:12:35;30.70;28.90
51029;DHT22;37054;52.054;8.600;2022-09-09T14:15:02;30.40;29.10
51029;DHT22;37054;52.054;8.600;2022-09-09T14:17:28;30.40;29.40
51029;DHT22;37054;52.054;8.600;2022-09-09T14:19:56;30.20;29.70
51029;DHT22;37054;52.054;8.600;2022-09-09T14:22:22;30.10;29.90
51029;DHT22;37054;52.054;8.600;2022-09-09T14:24:48;29.90;30.00
51029;DHT22;37054;52.054;8.600;2022-09-09T14:27:14;29.70;30.30
51029;DHT22;37054;52.054;8.600;2022-09-09T14:29:39;29.70;30.50
51029;DHT22;37054;52.054;8.600;2022-09-09T14:32:05;29.70;30.60
51029;DHT22;37054;52.054;8.600;2022-09-09T14:34:30;29.70;30.60
51029;DHT22;37054;52.054;8.600;2022-09-09T14:36:59;29.50;30.70
51029;DHT22;37054;52.054;8.600;2022-09-09T14:39:25;29.50;30.80
51029;DHT22;37054;52.054;8.600;2022-09-09T14:41:51;29.50;30.90
51029;DHT22;37054;52.054;8.600;2022-09-09T14:44:16;29.60;31.10
51029;DHT22;37054;52.054;8.600;2022-09-09T14:46:42;29.60;31.00
51029;DHT22;37054;52.054;8.600;2022-09-09T14:49:08;29.60;31.10
51029;DHT22;37054;52.054;8.600;2022-09-09T14:51:33;29.60;31.20
51029;DHT22;37054;52.054;8.600;2022-09-09T14:53:59;29.70;31.20
51029;DHT22;37054;52.054;8.600;2022-09-09T14:56:26;29.70;31.20
51029;DHT22;37054;52.054;8.600;2022-09-09T14:58:54;29.70;30.70
51029;DHT22;37054;52.054;8.600;2022-09-09T15:01:21;29.70;30.60
51029;DHT22;37054;52.054;8.600;2022-09-09T15:03:49;29.50;30.30
51029;DHT22;37054;52.054;8.600;2022-09-09T15:06:14;29.50;30.40
51029;DHT22;37054;52.054;8.600;2022-09-09T15:08:41;29.60;30.60
51029;DHT22;37054;52.054;8.600;2022-09-09T15:11:06;29.70;30.60
51029;DHT22;37054;52.054;8.600;2022-09-09T15:13:33;29.70;30.50
51029;DHT22;37054;52.054;8.600;2022-09-09T15:16:05;29.80;30.50
51029;DHT22;37054;52.054;8.600;2022-09-09T15:18:31;29.80;31.10
51029;DHT22;37054;52.054;8.600;2022-09-09T15:20:58;29.90;31.30
51029;DHT22;37054;52.054;8.600;2022-09-09T15:23:25;30.00;31.30
51029;DHT22;37054;52.054;8.600;2022-09-09T15:25:54;30.20;31.20
51029;DHT22;37054;52.054;8.600;2022-09-09T15:28:20;30.30;30.90
51029;DHT22;37054;52.054;8.600;2022-09-09T15:30:50;30.20;30.70
51029;DHT22;37054;52.054;8.600;2022-09-09T15:33:16;30.20;30.60
51029;DHT22;37054;52.054;8.600;2022-09-09T15:35:42;30.10;30.60
51029;DHT22;37054;52.054;8.600;2022-09-09T15:38:07;30.10;30.60
51029;DHT22;37054;52.054;8.600;2022-09-09T15:40:33;30.00;30.70
51029;DHT22;37054;52.054;8.600;2022-09-09T15:42:59;30.00;30.90
51029;DHT22;37054;52.054;8.600;2022-09-09T15:45:24;30.00;31.10
51029;DHT22;37054;52.054;8.600;2022-09-09T15:47:50;29.90;31.00
51029;DHT22;37054;52.054;8.600;2022-09-09T15:50:15;29.90;31.10
51029;DHT22;37054;52.054;8.600;2022-09-09T15:52:41;29.80;31.20
51029;DHT22;37054;52.054;8.600;2022-09-09T15:55:06;29.80;31.40
51029;DHT22;37054;52.054;8.600;2022-09-09T15:57:33;29.90;31.50
51029;DHT22;37054;52.054;8.600;2022-09-09T16:00:00;29.80;31.60
51029;DHT22;37054;52.054;8.600;2022-09-09T16:02:25;29.80;31.70
51029;DHT22;37054;52.054;8.600;2022-09-09T16:04:50;29.80;31.70
51029;DHT22;37054;52.054;8.600;2022-09-09T16:07:16;29.80;31.80
51029;DHT22;37054;52.054;8.600;2022-09-09T16:09:42;29.70;31.90
51029;DHT22;37054;52.054;8.600;2022-09-09T16:12:09;29.60;32.00
51029;DHT22;37054;52.054;8.600;2022-09-09T16:14:38;29.40;32.20
51029;DHT22;37054;52.054;8.600;2022-09-09T16:17:04;29.30;32.40
51029;DHT22;37054;52.054;8.600;2022-09-09T16:19:30;29.30;32.50
51029;DHT22;37054;52.054;8.600;2022-09-09T16:21:56;29.10;32.60
51029;DHT22;37054;52.054;8.600;2022-09-09T16:24:21;29.00;32.70
51029;DHT22;37054;52.054;8.600;2022-09-09T16:26:50;28.80;32.90
51029;DHT22;37054;52.054;8.600;2022-09-09T16:29:16;28.80;33.10
51029;DHT22;37054;52.054;8.600;2022-09-09T16:31:42;28.70;33.20
51029;DHT22;37054;52.054;8.600;2022-09-09T16:34:08;28.70;33.30
51029;DHT22;37054;52.054;8.600;2022-09-09T16:36:35;28.60;33.40
51029;DHT22;37054;52.054;8.600;2022-09-09T16:39:02;28.60;33.70
51029;DHT22;37054;52.054;8.600;2022-09-09T16:41:28;28.50;33.80
51029;DHT22;37054;52.054;8.600;2022-09-09T16:43:54;28.30;33.80
51029;DHT22;37054;52.054;8.600;2022-09-09T16:46:21;28.30;34.00
51029;DHT22;37054;52.054;8.600;2022-09-09T16:48:47;28.10;34.20
51029;DHT22;37054;52.054;8.600;2022-09-09T16:51:32;28.00;34.40
51029;DHT22;37054;52.054;8.600;2022-09-09T16:53:58;27.90;34.60
51029;DHT22;37054;52.054;8.600;2022-09-09T16:56:26;27.80;35.30
51029;DHT22;37054;52.054;8.600;2022-09-09T16:58:53;27.60;36.20
51029;DHT22;37054;52.054;8.600;2022-09-09T17:01:20;27.30;37.10
51029;DHT22;37054;52.054;8.600;2022-09-09T17:03:45;27.00;38.00
51029;DHT22;37054;52.054;8.600;2022-09-09T17:06:12;26.80;38.50